createdAt,value
2023-04-05T00:00:22.945Z,94521.25
2023-04-05T00:02:49.866Z,94499.50
2023-04-05T00:05:29.371Z,94515.81
2023-04-05T00:08:00.855Z,94493.38
2023-04-05T00:10:32.570Z,94510.06
2023-04-05T00:12:59.559Z,94510.78
2023-04-05T00:15:27.920Z,94508.47
2023-04-05T00:17:55.618Z,94510.09
2023-04-05T00:20:22.428Z,94487.22
2023-04-05T00:22:50.982Z,94508.09
2023-04-05T00:25:18.479Z,94503.91
2023-04-05T00:27:45.375Z,94511.94
2023-04-05T00:30:12.379Z,94501.75
2023-04-05T00:32:39.169Z,94499.16
2023-04-05T00:35:06.511Z,94496.50
2023-04-05T00:37:33.158Z,94519.66
2023-04-05T00:39:59.948Z,94525.38
2023-04-05T00:42:26.748Z,94515.84
2023-04-05T00:44:53.382Z,94505.13
2023-04-05T00:47:20.052Z,94508.56
2023-04-05T00:49:46.768Z,94505.22
2023-04-05T00:52:15.633Z,94508.22
2023-04-05T00:54:43.580Z,94480.47
2023-04-05T00:57:11.132Z,94517.34
2023-04-05T00:59:37.974Z,94516.59
2023-04-05T01:02:24.708Z,94492.75
2023-04-05T01:05:01.068Z,94517.75
2023-04-05T01:07:36.214Z,94512.47
2023-04-05T01:10:05.588Z,94515.53
2023-04-05T01:12:33.590Z,94499.84
2023-04-05T01:15:01.210Z,94529.16
2023-04-05T01:17:30.067Z,94529.13
2023-04-05T01:20:03.949Z,94525.31
2023-04-05T01:23:14.895Z,94528.34
2023-04-05T01:26:06.863Z,94518.81
2023-04-05T01:28:45.879Z,94525.25
2023-04-05T01:31:26.952Z,94523.91
2023-04-05T01:33:59.554Z,94533.41
2023-04-05T01:36:41.876Z,94529.13
2023-04-05T01:39:11.467Z,94532.06
2023-04-05T01:41:40.428Z,94525.69
2023-04-05T01:44:07.472Z,94519.63
2023-04-05T01:46:34.346Z,94535.13
2023-04-05T01:49:01.062Z,94540.78
2023-04-05T01:51:28.042Z,94535.91
2023-04-05T01:53:54.667Z,94535.13
2023-04-05T01:56:21.370Z,94532.41
2023-04-05T01:58:47.984Z,94536.59
2023-04-05T02:01:15.162Z,94512.09
2023-04-05T02:03:42.320Z,94519.03
2023-04-05T02:06:09.024Z,94533.81
2023-04-05T02:08:35.966Z,94541.16
2023-04-05T02:11:02.636Z,94530.19
2023-04-05T02:13:29.372Z,94526.59
2023-04-05T02:15:56.077Z,94530.00
2023-04-05T02:18:22.821Z,94539.50
2023-04-05T02:20:52.536Z,94530.06
2023-04-05T02:23:20.294Z,94543.69
2023-04-05T02:25:47.173Z,94535.66
2023-04-05T02:28:13.888Z,94536.19
2023-04-05T02:30:41.198Z,94533.94
2023-04-05T02:33:09.736Z,94541.13
2023-04-05T02:35:36.691Z,94529.00
2023-04-05T02:38:04.775Z,94535.09
2023-04-05T02:40:32.104Z,94542.38
2023-04-05T02:42:59.139Z,94531.41
2023-04-05T02:45:27.903Z,94542.00
2023-04-05T02:47:55.506Z,94530.59
2023-04-05T02:50:23.483Z,94534.84
2023-04-05T02:52:51.362Z,94540.63
2023-04-05T02:55:18.391Z,94531.44
2023-04-05T02:57:46.884Z,94531.41
2023-04-05T03:00:14.441Z,94525.59
2023-04-05T03:02:41.201Z,94528.25
2023-04-05T03:05:09.329Z,94526.38
2023-04-05T03:07:35.988Z,94535.09
2023-04-05T03:10:03.151Z,94526.00
2023-04-05T03:12:29.818Z,94529.16
2023-04-05T03:14:56.448Z,94529.78
2023-04-05T03:17:23.116Z,94515.66
2023-04-05T03:19:49.743Z,94527.16
2023-04-05T03:22:16.701Z,94534.34
2023-04-05T03:24:43.552Z,94538.56
2023-04-05T03:27:10.137Z,94535.13
2023-04-05T03:29:36.708Z,94530.97
2023-04-05T03:32:03.324Z,94537.47
2023-04-05T03:34:29.993Z,94523.75
2023-04-05T03:36:56.656Z,94526.69
2023-04-05T03:39:23.402Z,94522.97
2023-04-05T03:41:50.037Z,94533.28
2023-04-05T03:44:16.622Z,94530.13
2023-04-05T03:46:44.079Z,94519.72
2023-04-05T03:49:10.950Z,94536.19
2023-04-05T03:51:37.580Z,94544.16
2023-04-05T03:54:04.372Z,94536.53
2023-04-05T03:56:32.386Z,94544.50
2023-04-05T03:58:59.270Z,94542.19
2023-04-05T04:01:26.000Z,94544.84
2023-04-05T04:03:52.648Z,94559.75
2023-04-05T04:06:19.704Z,94557.44
2023-04-05T04:08:46.528Z,94554.06
2023-04-05T04:11:13.248Z,94556.44
2023-04-05T04:13:39.809Z,94559.41
2023-04-05T04:16:06.541Z,94558.66
2023-04-05T04:18:33.366Z,94552.94
2023-04-05T04:21:06.984Z,94558.66
2023-04-05T04:23:38.734Z,94545.78
2023-04-05T04:26:06.149Z,94560.63
2023-04-05T04:28:34.915Z,94570.94
2023-04-05T04:31:05.163Z,94551.47
2023-04-05T04:33:31.948Z,94563.25
2023-04-05T04:35:58.573Z,94552.53
2023-04-05T04:38:26.193Z,94564.47
2023-04-05T04:40:53.932Z,94542.06
2023-04-05T04:43:27.592Z,94564.81
2023-04-05T04:45:57.090Z,94562.97
2023-04-05T04:48:23.754Z,94565.66
2023-04-05T04:50:50.559Z,94572.41
2023-04-05T04:53:24.111Z,94570.53
2023-04-05T04:55:51.102Z,94564.09
2023-04-05T04:58:18.144Z,94566.28
2023-04-05T05:00:45.135Z,94583.13
2023-04-05T05:03:12.909Z,94577.75
2023-04-05T05:05:49.380Z,94572.31
2023-04-05T05:08:18.833Z,94570.00
2023-04-05T05:10:52.669Z,94560.09
2023-04-05T05:13:19.791Z,94566.66
2023-04-05T05:15:46.951Z,94574.53
2023-04-05T05:18:13.780Z,94575.00
2023-04-05T05:20:41.633Z,94582.22
2023-04-05T05:23:08.694Z,94580.56
2023-04-05T05:25:35.584Z,94579.75
2023-04-05T05:28:02.311Z,94577.69
2023-04-05T05:30:29.256Z,94591.84
2023-04-05T05:32:57.914Z,94579.59
2023-04-05T05:35:24.601Z,94590.94
2023-04-05T05:37:51.237Z,94583.47
2023-04-05T05:40:17.883Z,94576.06
2023-04-05T05:42:44.519Z,94581.81
2023-04-05T05:45:11.270Z,94574.25
2023-04-05T05:47:38.143Z,94587.94
2023-04-05T05:50:05.580Z,94583.22
2023-04-05T05:52:32.306Z,94578.16
2023-04-05T05:54:58.922Z,94591.56
2023-04-05T05:57:25.866Z,94583.53
2023-04-05T05:59:52.445Z,94573.97
2023-04-05T06:02:19.355Z,94584.84
2023-04-05T06:04:46.038Z,94583.03
2023-04-05T06:07:12.737Z,94585.13
2023-04-05T06:09:39.551Z,94590.44
2023-04-05T06:12:06.622Z,94581.22
2023-04-05T06:14:33.566Z,94588.69
2023-04-05T06:17:00.253Z,94593.97
2023-04-05T06:19:26.932Z,94579.78
2023-04-05T06:21:55.023Z,94604.69
2023-04-05T06:24:21.740Z,94589.00
2023-04-05T06:26:48.403Z,94591.28
2023-04-05T06:29:15.066Z,94598.72
2023-04-05T06:31:42.816Z,94577.84
2023-04-05T06:34:09.724Z,94599.69
2023-04-05T06:36:36.377Z,94610.31
2023-04-05T06:39:03.242Z,94602.06
2023-04-05T06:41:29.860Z,94608.44
2023-04-05T06:43:56.797Z,94613.75
2023-04-05T06:46:24.411Z,94628.91
2023-04-05T06:48:52.509Z,94582.53
2023-04-05T06:51:19.590Z,94621.41
2023-04-05T06:53:46.489Z,94616.69
2023-04-05T06:56:13.333Z,94633.66
2023-04-05T06:58:40.094Z,94635.13
2023-04-05T07:01:07.655Z,94643.31
2023-04-05T07:03:34.591Z,94642.97
2023-04-05T07:06:01.556Z,94635.78
2023-04-05T07:08:29.426Z,94639.16
2023-04-05T07:10:56.210Z,94655.22
2023-04-05T07:13:24.889Z,94644.53
2023-04-05T07:15:53.157Z,94658.97
2023-04-05T07:18:20.522Z,94667.91
2023-04-05T07:20:49.230Z,94658.59
2023-04-05T07:23:16.706Z,94664.41
2023-04-05T07:25:43.993Z,94660.91
2023-04-05T07:28:10.625Z,94669.69
2023-04-05T07:30:37.849Z,94677.59
2023-04-05T07:33:04.826Z,94667.81
2023-04-05T07:35:31.788Z,94662.56
2023-04-05T07:37:58.845Z,94673.03
2023-04-05T07:40:25.854Z,94671.53
2023-04-05T07:42:52.517Z,94657.16
2023-04-05T07:45:19.502Z,94672.53
2023-04-05T07:47:46.830Z,94669.25
2023-04-05T07:50:15.406Z,94676.13
2023-04-05T07:52:43.420Z,94668.53
2023-04-05T07:55:10.455Z,94684.69
2023-04-05T07:57:37.873Z,94682.25
2023-04-05T08:00:11.071Z,94696.94
2023-04-05T08:02:38.057Z,94704.19
2023-04-05T08:05:05.606Z,94694.97
2023-04-05T08:07:32.430Z,94713.28
2023-04-05T08:10:00.467Z,94669.97
2023-04-05T08:12:27.857Z,94695.72
2023-04-05T08:14:54.830Z,94696.94
2023-04-05T08:17:21.643Z,94632.09
2023-04-05T08:19:49.450Z,94701.25
2023-04-05T08:22:17.893Z,94698.84
2023-04-05T08:24:45.066Z,94722.41
2023-04-05T08:27:12.152Z,94706.72
2023-04-05T08:29:38.941Z,94707.50
2023-04-05T08:32:06.217Z,94721.66
2023-04-05T08:34:33.085Z,94713.63
2023-04-05T08:37:00.441Z,94698.97
2023-04-05T08:39:27.218Z,94711.38
2023-04-05T08:42:05.944Z,94712.59
2023-04-05T08:44:36.684Z,94729.38
2023-04-05T08:47:03.350Z,94726.22
2023-04-05T08:49:30.147Z,94714.47
2023-04-05T08:51:58.723Z,94711.69
2023-04-05T08:54:25.577Z,94724.81
2023-04-05T08:56:54.728Z,94711.22
2023-04-05T08:59:22.631Z,94721.78
2023-04-05T09:01:51.622Z,94731.22
2023-04-05T09:04:28.305Z,94722.94
2023-04-05T09:06:58.266Z,94742.97
2023-04-05T09:09:25.934Z,94654.75
2023-04-05T09:11:52.929Z,94733.94
2023-04-05T09:14:21.491Z,94723.78
2023-04-05T09:16:48.247Z,94746.88
2023-04-05T09:19:15.044Z,94714.97
2023-04-05T09:22:04.425Z,94742.09
2023-04-05T09:24:37.228Z,94749.78
2023-04-05T09:27:11.625Z,94737.22
2023-04-05T09:29:40.322Z,94735.38
2023-04-05T09:32:09.305Z,94748.75
2023-04-05T09:34:37.670Z,94724.97
2023-04-05T09:37:22.389Z,94726.72
2023-04-05T09:39:52.099Z,94736.31
2023-04-05T09:42:23.136Z,94722.66
2023-04-05T09:44:57.614Z,94732.88
2023-04-05T09:47:31.273Z,94742.50
2023-04-05T09:50:14.145Z,94721.09
2023-04-05T09:52:40.919Z,94742.22
2023-04-05T09:55:08.340Z,94716.00
2023-04-05T09:57:37.689Z,94736.63
2023-04-05T10:00:06.886Z,94741.91
2023-04-05T10:02:38.003Z,94730.06
2023-04-05T10:05:12.548Z,94741.50
2023-04-05T10:07:43.245Z,94734.78
2023-04-05T10:10:13.933Z,94738.97
2023-04-05T10:12:41.845Z,94732.69
2023-04-05T10:15:14.172Z,94747.69
2023-04-05T10:17:58.654Z,94729.66
2023-04-05T10:20:28.255Z,94729.75
2023-04-05T10:23:10.282Z,94732.16
2023-04-05T10:25:45.110Z,94734.78
2023-04-05T10:28:18.586Z,94728.38
2023-04-05T10:30:49.630Z,94727.84
2023-04-05T10:33:31.981Z,94739.81
2023-04-05T10:36:08.637Z,94732.78
2023-04-05T10:39:21.988Z,94746.22
2023-04-05T10:41:54.355Z,94733.94
2023-04-05T10:44:26.378Z,94730.88
2023-04-05T10:46:54.923Z,94716.38
2023-04-05T10:49:29.918Z,94728.13
2023-04-05T10:51:57.065Z,94747.81
2023-04-05T10:54:26.937Z,94741.81
2023-04-05T10:56:53.942Z,94734.50
2023-04-05T10:59:22.608Z,94727.59
2023-04-05T11:01:49.913Z,94721.50
2023-04-05T11:04:17.572Z,94734.84
2023-04-05T11:06:48.221Z,94726.09
2023-04-05T11:09:17.429Z,94740.38
2023-04-05T11:11:46.537Z,94706.09
2023-04-05T11:14:35.348Z,94736.44
2023-04-05T11:17:03.426Z,94730.28
2023-04-05T11:19:48.276Z,94741.91
2023-04-05T11:22:26.631Z,94755.00
2023-04-05T11:25:03.135Z,94733.22
2023-04-05T11:27:32.321Z,94735.75
2023-04-05T11:30:00.649Z,94754.84
2023-04-05T11:32:46.460Z,94722.66
2023-04-05T11:35:15.290Z,94714.31
2023-04-05T11:38:00.044Z,94740.59
2023-04-05T11:40:30.957Z,94745.56
2023-04-05T11:43:07.874Z,94743.97
2023-04-05T11:45:37.199Z,94755.44
2023-04-05T11:48:08.563Z,94728.28
2023-04-05T11:50:38.403Z,94746.16
2023-04-05T11:53:16.300Z,94752.03
2023-04-05T11:55:45.523Z,94748.25
2023-04-05T11:58:21.627Z,94727.63
2023-04-05T12:01:04.232Z,94701.34
2023-04-05T12:03:31.592Z,94755.28
2023-04-05T12:06:00.176Z,94686.09
2023-04-05T12:08:50.207Z,94753.66
2023-04-05T12:11:24.407Z,94728.38
2023-04-05T12:13:54.692Z,94745.97
2023-04-05T12:16:21.509Z,94725.75
2023-04-05T12:18:54.474Z,94749.34
2023-04-05T12:21:22.050Z,94744.13
2023-04-05T12:23:50.380Z,94749.44
2023-04-05T12:26:17.345Z,94739.13
2023-04-05T12:28:58.385Z,94753.97
2023-04-05T12:31:45.041Z,94728.47
2023-04-05T12:34:14.673Z,94710.56
2023-04-05T12:36:46.536Z,94733.00
2023-04-05T12:39:13.259Z,94736.97
2023-04-05T12:41:40.419Z,94739.16
2023-04-05T12:44:16.950Z,94736.50
2023-04-05T12:46:45.471Z,94723.06
2023-04-05T12:49:17.216Z,94754.03
2023-04-05T12:51:44.949Z,94741.50
2023-04-05T12:54:22.781Z,94704.59
2023-04-05T12:56:54.667Z,94694.66
2023-04-05T12:59:22.708Z,94743.28
2023-04-05T13:01:49.970Z,94713.75
2023-04-05T13:04:17.155Z,94670.81
2023-04-05T13:06:47.531Z,94726.88
2023-04-05T13:09:15.121Z,94738.66
2023-04-05T13:11:41.781Z,94718.03
2023-04-05T13:14:09.100Z,94735.41
2023-04-05T13:16:36.587Z,94733.81
2023-04-05T13:19:03.315Z,94762.75
2023-04-05T13:21:31.223Z,94776.53
2023-04-05T13:23:58.074Z,94747.69
2023-04-05T13:26:24.722Z,94710.03
2023-04-05T13:28:51.533Z,94763.16
2023-04-05T13:31:18.261Z,94751.16
2023-04-05T13:33:45.033Z,94745.41
2023-04-05T13:36:12.736Z,94765.16
2023-04-05T13:38:39.903Z,94727.88
2023-04-05T13:41:06.733Z,94763.91
2023-04-05T13:43:33.578Z,94759.69
2023-04-05T13:46:00.563Z,94729.16
2023-04-05T13:48:27.338Z,94721.63
2023-04-05T13:50:54.054Z,94772.94
2023-04-05T13:53:20.712Z,94733.13
2023-04-05T13:55:47.406Z,94756.66
2023-04-05T13:58:14.600Z,94765.34
2023-04-05T14:00:42.035Z,94719.47
2023-04-05T14:03:09.310Z,94763.66
2023-04-05T14:05:36.452Z,94776.72
2023-04-05T14:08:03.250Z,94748.13
2023-04-05T14:10:31.946Z,94732.38
2023-04-05T14:12:58.721Z,94747.88
2023-04-05T14:15:25.718Z,94716.44
2023-04-05T14:17:52.570Z,94768.72
2023-04-05T14:20:19.520Z,94782.19
2023-04-05T14:22:46.273Z,94771.38
2023-04-05T14:25:13.144Z,94739.94
2023-04-05T14:27:42.497Z,94756.81
2023-04-05T14:30:11.441Z,94768.03
2023-04-05T14:32:38.519Z,94762.66
2023-04-05T14:35:05.725Z,94735.50
2023-04-05T14:37:32.312Z,94763.88
2023-04-05T14:39:59.024Z,94746.34
2023-04-05T14:42:34.127Z,94770.78
2023-04-05T14:45:08.936Z,94782.38
2023-04-05T14:47:35.859Z,94771.00
2023-04-05T14:50:02.603Z,94763.63
2023-04-05T14:52:30.008Z,94786.97
2023-04-05T14:54:56.791Z,94798.91
2023-04-05T14:57:23.449Z,94776.81
2023-04-05T14:59:50.492Z,94779.94
2023-04-05T15:02:17.388Z,94782.28
2023-04-05T15:04:44.128Z,94792.50
2023-04-05T15:07:11.057Z,94750.34
2023-04-05T15:09:38.008Z,94794.72
2023-04-05T15:12:04.795Z,94803.84
2023-04-05T15:14:32.603Z,94784.41
2023-04-05T15:16:59.601Z,94800.69
2023-04-05T15:19:27.433Z,94798.13
2023-04-05T15:21:54.216Z,94791.88
2023-04-05T15:24:20.964Z,94743.16
2023-04-05T15:26:47.694Z,94780.38
2023-04-05T15:29:14.525Z,94754.25
2023-04-05T15:31:41.933Z,94796.19
2023-04-05T15:34:08.797Z,94747.28
2023-04-05T15:36:36.272Z,94801.91
2023-04-05T15:39:05.257Z,94747.03
2023-04-05T15:41:34.255Z,94803.75
2023-04-05T15:44:01.693Z,94804.19
2023-04-05T15:46:29.558Z,94776.47
2023-04-05T15:48:56.366Z,94805.53
2023-04-05T15:51:23.324Z,94806.91
2023-04-05T15:53:50.286Z,94805.47
2023-04-05T15:56:17.325Z,94816.16
2023-04-05T15:58:44.586Z,94819.59
2023-04-05T16:01:11.394Z,94812.03
2023-04-05T16:03:38.749Z,94810.53
2023-04-05T16:06:05.637Z,94777.16
2023-04-05T16:08:32.449Z,94808.56
2023-04-05T16:10:59.219Z,94760.66
2023-04-05T16:13:26.515Z,94801.09
2023-04-05T16:15:53.428Z,94800.41
2023-04-05T16:18:21.314Z,94773.25
2023-04-05T16:20:48.571Z,94781.16
2023-04-05T16:23:15.737Z,94825.38
2023-04-05T16:25:42.552Z,94821.56
2023-04-05T16:28:09.404Z,94821.56
2023-04-05T16:30:36.874Z,94817.75
2023-04-05T16:33:03.753Z,94808.63
2023-04-05T16:35:31.331Z,94771.97
2023-04-05T16:37:58.673Z,94832.44
2023-04-05T16:40:25.589Z,94816.09
2023-04-05T16:42:54.259Z,94801.34
2023-04-05T16:45:21.128Z,94750.75
2023-04-05T16:47:48.342Z,94785.38
2023-04-05T16:50:15.527Z,94773.94
2023-04-05T16:52:42.475Z,94781.63
2023-04-05T16:55:09.997Z,94766.53
2023-04-05T16:57:36.815Z,94765.66
2023-04-05T17:00:05.257Z,94771.47
2023-04-05T17:02:32.173Z,94813.75
2023-04-05T17:04:59.090Z,94814.50
2023-04-05T17:07:25.869Z,94783.91
2023-04-05T17:09:52.597Z,94814.47
2023-04-05T17:12:20.627Z,94813.69
2023-04-05T17:14:47.380Z,94814.00
2023-04-05T17:17:14.088Z,94819.38
2023-04-05T17:19:40.904Z,94821.44
2023-04-05T17:22:07.720Z,94779.94
2023-04-05T17:24:36.396Z,94725.97
2023-04-05T17:27:03.997Z,94817.34
2023-04-05T17:29:30.700Z,94798.97
2023-04-05T17:31:57.588Z,94822.53
2023-04-05T17:34:24.626Z,94808.59
2023-04-05T17:36:52.858Z,94820.69
2023-04-05T17:39:19.792Z,94791.41
2023-04-05T17:41:46.883Z,94803.25
2023-04-05T17:44:15.763Z,94820.88
2023-04-05T17:46:51.042Z,94797.16
2023-04-05T17:49:21.055Z,94783.94
2023-04-05T17:51:48.244Z,94830.44
2023-04-05T17:54:15.638Z,94843.44
2023-04-05T17:56:42.422Z,94817.25
2023-04-05T17:59:09.575Z,94812.97
2023-04-05T18:01:37.918Z,94778.72
2023-04-05T18:04:05.859Z,94749.84
2023-04-05T18:06:32.913Z,94787.53
2023-04-05T18:08:59.837Z,94833.13
2023-04-05T18:11:26.610Z,94844.22
2023-04-05T18:13:53.319Z,94847.72
2023-04-05T18:16:20.023Z,94795.13
2023-04-05T18:18:46.731Z,94844.63
2023-04-05T18:21:13.420Z,94833.94
2023-04-05T18:23:40.297Z,94835.94
2023-04-05T18:26:10.261Z,94831.63
2023-04-05T18:28:37.107Z,94819.06
2023-04-05T18:31:03.743Z,94824.56
2023-04-05T18:33:30.497Z,94814.56
2023-04-05T18:35:57.266Z,94837.78
2023-04-05T18:38:24.248Z,94850.72
2023-04-05T18:40:50.948Z,94865.28
2023-04-05T18:43:17.806Z,94865.22
2023-04-05T18:45:44.578Z,94860.66
2023-04-05T18:48:11.652Z,94859.91
2023-04-05T18:50:38.515Z,94869.81
2023-04-05T18:53:06.920Z,94864.41
2023-04-05T18:55:33.884Z,94860.66
2023-04-05T18:58:00.964Z,94858.03
2023-04-05T19:00:27.831Z,94863.78
2023-04-05T19:02:54.862Z,94866.84
2023-04-05T19:05:21.772Z,94793.00
2023-04-05T19:07:48.513Z,94845.47
2023-04-05T19:10:15.657Z,94859.53
2023-04-05T19:12:43.559Z,94868.34
2023-04-05T19:15:10.667Z,94803.34
2023-04-05T19:17:37.692Z,94792.34
2023-04-05T19:20:05.071Z,94865.09
2023-04-05T19:22:31.753Z,94884.59
2023-04-05T19:24:58.739Z,94860.84
2023-04-05T19:27:32.941Z,94841.88
2023-04-05T19:29:59.649Z,94848.28
2023-04-05T19:32:26.784Z,94860.16
2023-04-05T19:34:53.586Z,94852.91
2023-04-05T19:37:20.850Z,94862.84
2023-04-05T19:39:48.296Z,94851.72
2023-04-05T19:42:15.485Z,94835.47
2023-04-05T19:44:51.222Z,94851.44
2023-04-05T19:47:21.334Z,94857.94
2023-04-05T19:49:50.247Z,94850.34
2023-04-05T19:52:40.932Z,94849.53
2023-04-05T19:55:32.634Z,94850.34
2023-04-05T19:58:01.068Z,94821.00
2023-04-05T20:00:52.706Z,94814.13
2023-04-05T20:03:31.572Z,94843.84
2023-04-05T20:05:58.230Z,94848.06
2023-04-05T20:08:25.268Z,94847.69
2023-04-05T20:10:53.267Z,94832.88
2023-04-05T20:13:20.217Z,94849.59
2023-04-05T20:15:51.918Z,94835.81
2023-04-05T20:18:27.026Z,94836.66
2023-04-05T20:20:55.205Z,94828.97
2023-04-05T20:23:23.178Z,94826.69
2023-04-05T20:25:51.389Z,94808.81
2023-04-05T20:28:41.662Z,94841.56
2023-04-05T20:31:18.178Z,94821.00
2023-04-05T20:33:46.973Z,94848.81
2023-04-05T20:36:22.521Z,94851.88
2023-04-05T20:38:50.395Z,94826.38
2023-04-05T20:41:18.984Z,94856.06
2023-04-05T20:43:45.968Z,94860.66
2023-04-05T20:46:13.089Z,94838.84
2023-04-05T20:48:39.741Z,94854.13
2023-04-05T20:51:07.902Z,94844.19
2023-04-05T20:53:36.572Z,94855.28
2023-04-05T20:56:07.996Z,94858.75
2023-04-05T20:58:40.070Z,94856.13
2023-04-05T21:01:08.409Z,94855.72
2023-04-05T21:03:37.619Z,94851.50
2023-04-05T21:06:06.185Z,94838.56
2023-04-05T21:08:33.140Z,94847.63
2023-04-05T21:11:00.173Z,94829.38
2023-04-05T21:13:26.910Z,94858.34
2023-04-05T21:15:55.262Z,94852.63
2023-04-05T21:18:25.851Z,94854.91
2023-04-05T21:20:53.893Z,94845.78
2023-04-05T21:23:27.174Z,94857.19
2023-04-05T21:25:58.235Z,94868.22
2023-04-05T21:28:25.773Z,94860.97
2023-04-05T21:30:53.224Z,94851.78
2023-04-05T21:33:20.939Z,94859.78
2023-04-05T21:35:47.730Z,94839.94
2023-04-05T21:38:15.790Z,94862.06
2023-04-05T21:40:44.721Z,94857.09
2023-04-05T21:43:12.654Z,94842.94
2023-04-05T21:45:39.280Z,94852.44
2023-04-05T21:48:06.376Z,94842.56
2023-04-05T21:50:33.844Z,94857.84
2023-04-05T21:53:00.675Z,94813.56
2023-04-05T21:55:27.435Z,94847.03
2023-04-05T21:57:54.219Z,94860.78
2023-04-05T22:00:21.032Z,94860.75
2023-04-05T22:02:47.687Z,94845.94
2023-04-05T22:05:25.697Z,94837.50
2023-04-05T22:08:01.361Z,94832.59
2023-04-05T22:10:28.687Z,94828.72
2023-04-05T22:12:55.649Z,94833.31
2023-04-05T22:15:22.271Z,94834.75
2023-04-05T22:17:49.014Z,94831.72
2023-04-05T22:20:16.052Z,94812.66
2023-04-05T22:22:42.809Z,94842.78
2023-04-05T22:25:10.018Z,94843.50
2023-04-05T22:27:36.837Z,94840.06
2023-04-05T22:30:05.458Z,94820.91
2023-04-05T22:32:32.268Z,94842.75
2023-04-05T22:34:58.984Z,94838.19
2023-04-05T22:37:26.590Z,94842.44
2023-04-05T22:39:53.179Z,94795.69
2023-04-05T22:42:19.954Z,94828.38
2023-04-05T22:44:46.671Z,94815.84
2023-04-05T22:47:13.268Z,94825.03
2023-04-05T22:49:40.287Z,94825.13
2023-04-05T22:52:07.051Z,94798.09
2023-04-05T22:54:33.772Z,94826.63
2023-04-05T22:57:01.271Z,94814.06
2023-04-05T22:59:28.063Z,94809.84
2023-04-05T23:01:54.796Z,94817.03
2023-04-05T23:04:21.712Z,94815.19
2023-04-05T23:06:48.509Z,94798.41
2023-04-05T23:09:15.431Z,94811.38
2023-04-05T23:11:42.943Z,94807.91
2023-04-05T23:14:09.915Z,94798.75
2023-04-05T23:16:36.786Z,94759.13
2023-04-05T23:19:03.944Z,94781.97
2023-04-05T23:21:31.284Z,94756.44
2023-04-05T23:23:57.884Z,94795.34
2023-04-05T23:26:24.705Z,94781.63
2023-04-05T23:28:51.325Z,94790.34
2023-04-05T23:31:18.025Z,94791.13
2023-04-05T23:33:44.711Z,94778.94
2023-04-05T23:36:11.599Z,94764.47
2023-04-05T23:38:38.220Z,94771.63
2023-04-05T23:41:05.135Z,94751.78
2023-04-05T23:43:32.251Z,94725.50
2023-04-05T23:45:59.015Z,94758.53
2023-04-05T23:48:26.295Z,94734.13
2023-04-05T23:50:53.103Z,94770.63
2023-04-05T23:53:20.000Z,94705.97
2023-04-05T23:55:46.839Z,94743.59
2023-04-05T23:58:13.580Z,94766.03
